PWSweather.com
Personal Weather Stations
Station Observations
WD02334
France, RosnySousBoisFR 93110

FranceRosnySousBoisFR 93110

Lat: 48.875661, Lon: 2.485932

Elevation: 88

Station Type: WMR100/OREGON SCIENTIFIC

http://boulletpascal.fr/index

Latest ConditionsUpdated 10:10:10 AM GMT+01:01 Saturday, Aug 29, 2015
Currently Today's Max Today's Min Today's Average
Temperature 76.3°F24.6°C 76.3°F24.6°C 59.0°F15.0°C 62.2°F16.8°C
Dew Point 64.9°F18.3°C 64.9°F18.3°C 55.8°F13.2°C 57.5°F14.2°C
Winds 3.5 mph WNW5.6 kmh WNW 3.5 mph WNW5.6 kmh WNW - 0.9 mph 1.4 kmh
Wind Gusts 4.6 mph7.4 kmh 4.6 mph7.4 kmh - -
Humidity 68% 90% 68% 85%
Pressure 30.00 in1015.9 mb 30.03 in1016.9 mb 30.00 in1015.9 mb -
Hour Temp Dew Point Humidity Winds Wind Gusts Pressure Precip Precip Rate Daily Precip Total
10:10 AM 76.3°F24.6°C 64.9°F18.3°C 68% 3.5 mph WNW5.6 kmh WNW 4.6 mph7.4 kmh 30.00 in1015.9 mb - 0.00 in0.0 mm 0.00 in0.0 mm
10:00 AM 74.9°F23.8°C 64.5°F18.1°C 70% 1.2 mph N1.9 kmh N 2.3 mph3.7 kmh 30.00 in1015.9 mb - 0.00 in0.0 mm 0.00 in0.0 mm
09:00 AM 69.6°F20.9°C 64.2°F17.9°C 83% 2.3 mph W3.7 kmh W 3.5 mph5.6 kmh 30.00 in1015.9 mb - 0.00 in0.0 mm 0.00 in0.0 mm
08:50 AM 66.4°F19.1°C 61.7°F16.5°C 85% 2.3 mph WNW3.7 kmh WNW 3.5 mph5.6 kmh 30.00 in1015.9 mb - 0.00 in0.0 mm 0.00 in0.0 mm
08:40 AM 65.3°F18.5°C 61.0°F16.1°C 86% 2.3 mph W3.7 kmh W 4.6 mph7.4 kmh 30.00 in1015.9 mb - 0.00 in0.0 mm 0.00 in0.0 mm
08:30 AM 64.0°F17.8°C 59.8°F15.4°C 86% Calm Calm 2.3 mph3.7 kmh 30.00 in1015.9 mb - 0.00 in0.0 mm 0.00 in0.0 mm
08:20 AM 63.4°F17.4°C 59.4°F15.2°C 87% 1.2 mph W1.9 kmh W 2.3 mph3.7 kmh 30.03 in1016.9 mb - 0.00 in0.0 mm 0.00 in0.0 mm
08:10 AM 63.4°F17.4°C 59.8°F15.4°C 88% Calm Calm 1.2 mph1.9 kmh 30.01 in1016.3 mb - 0.00 in0.0 mm 0.00 in0.0 mm
07:50 AM 63.3°F17.4°C 59.6°F15.3°C 88% Calm Calm 1.2 mph1.9 kmh 30.00 in1015.9 mb - 0.00 in0.0 mm 0.00 in0.0 mm
06:50 AM 59.4°F15.2°C 56.5°F13.6°C 90% Calm Calm -- 30.00 in1015.9 mb - 0.00 in0.0 mm 0.00 in0.0 mm
06:40 AM 59.3°F15.2°C 56.3°F13.5°C 90% Calm Calm -- 30.00 in1015.9 mb - 0.00 in0.0 mm 0.00 in0.0 mm
06:30 AM 59.1°F15.1°C 56.2°F13.4°C 90% Calm Calm -- 30.00 in1015.9 mb - 0.00 in0.0 mm 0.00 in0.0 mm
06:20 AM 59.0°F15.0°C 55.8°F13.2°C 89% Calm Calm -- 30.00 in1015.9 mb - 0.00 in0.0 mm 0.00 in0.0 mm
06:10 AM 59.0°F15.0°C 55.8°F13.2°C 89% Calm Calm -- 30.00 in1015.9 mb - 0.00 in0.0 mm 0.00 in0.0 mm
03:40 AM 60.1°F15.6°C 56.2°F13.4°C 87% Calm Calm 1.2 mph1.9 kmh 30.00 in1015.9 mb - 0.00 in0.0 mm 0.00 in0.0 mm
03:30 AM 60.2°F15.7°C 56.0°F13.3°C 86% Calm Calm -- 30.00 in1015.9 mb - 0.00 in0.0 mm 0.00 in0.0 mm
03:20 AM 60.3°F15.7°C 56.1°F13.4°C 86% Calm Calm 1.2 mph1.9 kmh 30.00 in1015.9 mb - 0.00 in0.0 mm 0.00 in0.0 mm
03:10 AM 60.4°F15.8°C 56.2°F13.4°C 86% Calm Calm -- 30.00 in1015.9 mb - 0.00 in0.0 mm 0.00 in0.0 mm
03:00 AM 60.4°F15.8°C 56.2°F13.4°C 86% Calm Calm -- 30.00 in1015.9 mb - 0.00 in0.0 mm 0.00 in0.0 mm
02:50 AM 60.5°F15.8°C 56.3°F13.5°C 86% 1.2 mph W1.9 kmh W 2.3 mph3.7 kmh 30.00 in1015.9 mb - 0.00 in0.0 mm 0.00 in0.0 mm
02:40 AM 60.6°F15.9°C 56.4°F13.6°C 86% 1.2 mph W1.9 kmh W 1.2 mph1.9 kmh 30.00 in1015.9 mb - 0.00 in0.0 mm 0.00 in0.0 mm
02:30 AM 60.6°F15.9°C 56.1°F13.4°C 85% 1.2 mph W1.9 kmh W 1.2 mph1.9 kmh 30.00 in1015.9 mb - 0.00 in0.0 mm 0.00 in0.0 mm
02:20 AM 60.8°F16.0°C 56.3°F13.5°C 85% Calm Calm -- 30.00 in1015.9 mb - 0.00 in0.0 mm 0.00 in0.0 mm
02:10 AM 61.0°F16.1°C 56.4°F13.6°C 85% 1.2 mph NNW1.9 kmh NNW 1.2 mph1.9 kmh 30.00 in1015.9 mb - 0.00 in0.0 mm 0.00 in0.0 mm
02:00 AM 61.2°F16.2°C 56.6°F13.7°C 85% Calm Calm -- 30.00 in1015.9 mb - 0.00 in0.0 mm 0.00 in0.0 mm
01:50 AM 61.2°F16.2°C 56.6°F13.7°C 85% 1.2 mph SW1.9 kmh SW 2.3 mph3.7 kmh 30.00 in1015.9 mb - 0.00 in0.0 mm 0.00 in0.0 mm
01:40 AM 61.2°F16.2°C 56.3°F13.5°C 84% 1.2 mph NW1.9 kmh NW 3.5 mph5.6 kmh 30.00 in1015.9 mb - 0.00 in0.0 mm 0.00 in0.0 mm
01:30 AM 61.2°F16.2°C 56.3°F13.5°C 84% 2.3 mph W3.7 kmh W 2.3 mph3.7 kmh 30.03 in1016.9 mb - 0.00 in0.0 mm 0.00 in0.0 mm
01:20 AM 61.0°F16.1°C 56.1°F13.4°C 84% 1.2 mph WSW1.9 kmh WSW 1.2 mph1.9 kmh 30.03 in1016.9 mb - 0.00 in0.0 mm 0.00 in0.0 mm
01:10 AM 61.0°F16.1°C 56.1°F13.4°C 84% 1.2 mph W1.9 kmh W 2.3 mph3.7 kmh 30.02 in1016.6 mb - 0.00 in0.0 mm 0.00 in0.0 mm
01:00 AM 61.0°F16.1°C 56.1°F13.4°C 84% 1.2 mph W1.9 kmh W 2.3 mph3.7 kmh 30.00 in1015.9 mb - 0.00 in0.0 mm 0.00 in0.0 mm
12:50 AM 61.0°F16.1°C 56.1°F13.4°C 84% 1.2 mph W1.9 kmh W 1.2 mph1.9 kmh 30.00 in1015.9 mb - 0.00 in0.0 mm 0.00 in0.0 mm
12:40 AM 61.0°F16.1°C 55.8°F13.2°C 83% 2.3 mph W3.7 kmh W 2.3 mph3.7 kmh 30.00 in1015.9 mb - 0.00 in0.0 mm 0.00 in0.0 mm
12:30 AM 61.2°F16.2°C 56.0°F13.3°C 83% 2.3 mph E3.7 kmh E 2.3 mph3.7 kmh 30.00 in1015.9 mb - 0.00 in0.0 mm 0.00 in0.0 mm
12:20 AM 61.3°F16.3°C 56.1°F13.4°C 83% 1.2 mph SE1.9 kmh SE 2.3 mph3.7 kmh 30.03 in1016.9 mb - 0.00 in0.0 mm 0.00 in0.0 mm
12:10 AM 61.5°F16.4°C 56.3°F13.5°C 83% Calm Calm -- 30.03 in1016.9 mb - 0.00 in0.0 mm 0.00 in0.0 mm
12:00 AM 61.7°F16.5°C 56.5°F13.6°C 83% Calm Calm 1.2 mph1.9 kmh 30.03 in1016.9 mb - 0.00 in0.0 mm 0.00 in0.0 mm